Time;durP1;ratioP1;P1;durP2;ratioP2;P2;SDS_P1;SDS_P2;PMS_P1;PMS_P2;Temp;Humidity;BMP_temperature;BMP_pressure;BME280_temperature;BME280_humidity;BME280_pressure;Samples;Min_cycle;Max_cycle;Signal;HPM_P1;HPM_P2
2023/05/11 00:00:36;;;;;;;0.00;0.00;;;;;;;12.25;100.00;100211.13;5014592;28;20188;-78
2023/05/11 00:03:02;;;;;;;0.00;0.00;;;;;;;12.28;100.00;100208.53;5014433;28;20714;-79
2023/05/11 00:05:27;;;;;;;0.00;0.00;;;;;;;12.35;100.00;100203.34;5013938;28;20192;-79
2023/05/11 00:07:52;;;;;;;0.00;0.00;;;;;;;12.35;100.00;100208.81;5014432;28;20328;-79
2023/05/11 00:10:18;;;;;;;1.80;0.53;;;;;;;12.34;100.00;100209.16;5014633;28;20219;-78
2023/05/11 00:12:43;;;;;;;0.40;0.40;;;;;;;12.36;100.00;100204.94;5014170;28;20302;-79
2023/05/11 00:15:09;;;;;;;2.73;1.00;;;;;;;12.30;100.00;100211.75;5014533;28;20172;-79
2023/05/11 00:17:35;;;;;;;0.53;0.53;;;;;;;12.25;100.00;100206.44;5014543;28;20198;-79
2023/05/11 00:20:00;;;;;;;4.00;2.10;;;;;;;12.26;100.00;100218.19;5014685;28;20687;-80
2023/05/11 00:22:25;;;;;;;0.00;0.00;;;;;;;12.27;100.00;100211.59;5016387;28;20254;-79
2023/05/11 00:24:51;;;;;;;0.00;0.00;;;;;;;12.32;100.00;100214.16;5016262;28;20192;-79
2023/05/11 00:27:16;;;;;;;0.00;0.00;;;;;;;12.36;100.00;100210.44;5016101;28;20187;-79
2023/05/11 00:29:41;;;;;;;0.00;0.00;;;;;;;12.43;100.00;100216.19;5016656;28;20239;-79
2023/05/11 00:32:07;;;;;;;0.00;0.00;;;;;;;12.47;100.00;100214.41;5020057;28;20214;-80
2023/05/11 00:34:32;;;;;;;0.00;0.00;;;;;;;12.56;100.00;100213.56;5020463;28;20180;-80
2023/05/11 00:36:57;;;;;;;1.07;1.07;;;;;;;12.61;100.00;100219.69;5019813;28;20181;-80
2023/05/11 00:39:23;;;;;;;0.00;0.00;;;;;;;12.66;100.00;100218.66;5018657;28;20239;-80
2023/05/11 00:41:48;;;;;;;0.00;0.00;;;;;;;12.68;100.00;100217.19;5018356;28;20626;-79
2023/05/11 00:44:14;;;;;;;0.00;0.00;;;;;;;12.72;100.00;100220.06;5020494;28;20315;-80
2023/05/11 00:46:39;;;;;;;0.00;0.00;;;;;;;12.74;100.00;100221.38;5018136;28;20199;-79
2023/05/11 00:49:04;;;;;;;0.07;0.07;;;;;;;12.75;100.00;100214.75;5019090;28;20271;-80
2023/05/11 00:51:31;;;;;;;0.00;0.00;;;;;;;12.76;100.00;100210.06;5019171;28;20311;-79
2023/05/11 00:53:57;;;;;;;0.00;0.00;;;;;;;12.63;100.00;100216.59;5019364;28;20234;-80
2023/05/11 00:56:23;;;;;;;0.20;0.20;;;;;;;12.71;100.00;100213.00;5017769;28;20192;-80
2023/05/11 00:58:48;;;;;;;0.07;0.07;;;;;;;12.67;100.00;100215.59;5019075;28;20208;-79
2023/05/11 01:01:16;;;;;;;0.00;0.00;;;;;;;12.77;100.00;100214.44;5018516;28;20255;-79
2023/05/11 01:03:42;;;;;;;0.00;0.00;;;;;;;12.80;100.00;100211.00;5005117;28;20185;-79
2023/05/11 01:06:14;;;;;;;0.00;0.00;;;;;;;12.88;100.00;100215.66;5010140;28;20189;-80
2023/05/11 01:09:01;;;;;;;0.30;0.30;;;;;;;12.95;100.00;100213.16;5017428;28;20186;-79
2023/05/11 01:11:42;;;;;;;0.00;0.00;;;;;;;12.82;100.00;100212.28;5016925;28;20584;-80
2023/05/11 01:14:22;;;;;;;0.10;0.10;;;;;;;12.75;100.00;100217.50;5010929;28;20177;-80
2023/05/11 01:16:51;;;;;;;0.00;0.00;;;;;;;12.70;100.00;100223.16;4999866;28;20249;-79
2023/05/11 01:19:38;;;;;;;0.00;0.00;;;;;;;12.72;100.00;100226.38;5016970;28;20200;-79
2023/05/11 01:22:14;;;;;;;0.00;0.00;;;;;;;12.78;100.00;100221.50;5017021;28;20204;-78
2023/05/11 01:24:58;;;;;;;0.00;0.00;;;;;;;12.76;100.00;100224.59;5017171;28;20259;-79
2023/05/11 01:27:37;;;;;;;0.00;0.00;;;;;;;12.81;100.00;100218.91;5016630;28;20212;-79
2023/05/11 01:30:26;;;;;;;0.20;0.20;;;;;;;12.75;100.00;100219.44;5017000;28;20227;-79
2023/05/11 01:33:01;;;;;;;0.00;0.00;;;;;;;12.81;100.00;100218.09;5016725;28;20196;-79
2023/05/11 01:35:30;;;;;;;0.00;0.00;;;;;;;12.77;100.00;100217.97;5016367;28;20215;-79
2023/05/11 01:37:57;;;;;;;0.00;0.00;;;;;;;12.81;100.00;100220.84;5017064;28;20211;-79
2023/05/11 01:40:26;;;;;;;0.00;0.00;;;;;;;12.84;100.00;100219.38;5017056;28;20534;-79
2023/05/11 01:43:02;;;;;;;0.00;0.00;;;;;;;12.88;100.00;100220.34;5015902;28;20546;-79
2023/05/11 01:45:31;;;;;;;0.00;0.00;;;;;;;12.86;100.00;100228.88;5016321;28;20176;-79
2023/05/11 01:48:01;;;;;;;0.00;0.00;;;;;;;12.86;100.00;100226.13;5016333;28;20232;-79
2023/05/11 01:50:26;;;;;;;0.00;0.00;;;;;;;12.89;100.00;100227.41;5016639;28;20649;-80
2023/05/11 01:52:52;;;;;;;0.03;0.03;;;;;;;12.86;100.00;100223.38;5015003;28;20291;-79
2023/05/11 01:55:21;;;;;;;0.00;0.00;;;;;;;12.77;100.00;100219.91;5015349;28;20326;-79
2023/05/11 01:57:47;;;;;;;0.00;0.00;;;;;;;12.77;100.00;100222.66;5020027;28;20218;-79
2023/05/11 02:00:15;;;;;;;0.00;0.00;;;;;;;12.82;100.00;100234.22;5038350;28;20184;-79
2023/05/11 02:02:43;;;;;;;0.00;0.00;;;;;;;12.86;100.00;100228.06;5019851;28;20218;-79
2023/05/11 02:05:10;;;;;;;0.00;0.00;;;;;;;12.80;100.00;100231.00;5015491;28;20194;-79
2023/05/11 02:07:38;;;;;;;0.00;0.00;;;;;;;12.75;100.00;100227.66;5016750;28;20234;-79
2023/05/11 02:10:05;;;;;;;0.00;0.00;;;;;;;12.72;100.00;100226.38;5016477;28;20185;-79
2023/05/11 02:12:32;;;;;;;0.47;0.47;;;;;;;12.75;100.00;100233.94;5031031;28;20577;-79
2023/05/11 02:15:00;;;;;;;1.00;0.77;;;;;;;12.65;100.00;100226.09;5016298;28;20176;-79
2023/05/11 02:17:26;;;;;;;0.17;0.17;;;;;;;12.60;100.00;100226.28;5015498;28;20180;-79
2023/05/11 02:19:53;;;;;;;0.00;0.00;;;;;;;12.57;100.00;100231.59;5015641;28;20181;-79
2023/05/11 02:22:19;;;;;;;0.00;0.00;;;;;;;12.59;100.00;100223.88;5015811;28;20211;-79
2023/05/11 02:24:46;;;;;;;0.70;0.70;;;;;;;12.55;100.00;100228.41;5015557;28;20189;-79
2023/05/11 02:27:11;;;;;;;0.10;0.10;;;;;;;12.48;100.00;100235.19;5015250;28;20177;-79
2023/05/11 02:29:37;;;;;;;0.53;0.33;;;;;;;12.46;100.00;100236.66;5013775;28;20180;-79
2023/05/11 02:32:06;;;;;;;0.00;0.00;;;;;;;12.39;100.00;100234.44;5015386;28;20258;-79
2023/05/11 02:34:39;;;;;;;0.27;0.27;;;;;;;12.35;100.00;100230.75;5014986;28;20243;-79
2023/05/11 02:37:10;;;;;;;0.30;0.30;;;;;;;12.31;100.00;100237.22;5014580;28;20188;-79
2023/05/11 02:39:37;;;;;;;1.63;0.77;;;;;;;12.29;100.00;100233.97;5015309;28;20208;-79
2023/05/11 02:42:31;;;;;;;0.00;0.00;;;;;;;12.31;100.00;100239.97;5014637;28;20200;-79
2023/05/11 02:45:03;;;;;;;0.00;0.00;;;;;;;12.29;100.00;100237.53;5011819;28;20196;-79
2023/05/11 02:47:32;;;;;;;0.00;0.00;;;;;;;12.33;100.00;100230.28;5015275;28;20185;-79
2023/05/11 02:50:01;;;;;;;0.07;0.07;;;;;;;12.33;100.00;100233.00;5015441;28;20524;-79
2023/05/11 02:52:27;;;;;;;0.00;0.00;;;;;;;12.32;100.00;100231.41;5015810;28;20208;-79
2023/05/11 02:54:53;;;;;;;0.00;0.00;;;;;;;12.35;100.00;100230.75;5014222;28;20670;-80
2023/05/11 02:57:19;;;;;;;0.27;0.10;;;;;;;12.36;100.00;100226.06;5014654;28;20583;-79
2023/05/11 02:59:45;;;;;;;0.00;0.00;;;;;;;12.42;100.00;100231.03;5015084;28;20200;-79
2023/05/11 03:02:12;;;;;;;0.00;0.00;;;;;;;12.44;100.00;100228.78;5029828;28;20287;-79
2023/05/11 03:04:40;;;;;;;0.00;0.00;;;;;;;12.47;100.00;100235.53;5012999;28;20207;-78
2023/05/11 03:07:06;;;;;;;0.37;0.37;;;;;;;12.46;100.00;100236.66;5013589;28;20270;-79
2023/05/11 03:09:33;;;;;;;0.00;0.00;;;;;;;12.43;100.00;100234.56;5029090;28;20192;-79
2023/05/11 03:11:58;;;;;;;0.43;0.43;;;;;;;12.44;100.00;100230.69;5028789;28;20204;-79
2023/05/11 03:14:24;;;;;;;0.13;0.13;;;;;;;12.39;100.00;100239.09;5012831;28;20181;-79
2023/05/11 03:16:51;;;;;;;0.60;0.60;;;;;;;12.38;100.00;100232.03;4996861;28;20283;-78
2023/05/11 03:19:17;;;;;;;0.10;0.10;;;;;;;12.40;100.00;100227.00;5012228;28;20236;-78
2023/05/11 03:21:42;;;;;;;1.20;1.03;;;;;;;12.40;100.00;100236.03;5011851;28;20722;-78
2023/05/11 03:24:09;;;;;;;0.20;0.20;;;;;;;12.39;100.00;100231.69;5012247;28;20250;-79
2023/05/11 03:26:35;;;;;;;0.10;0.10;;;;;;;12.37;100.00;100233.94;5010416;28;20207;-78
2023/05/11 03:29:02;;;;;;;0.10;0.10;;;;;;;12.37;100.00;100233.16;5011867;28;20176;-78
2023/05/11 03:31:28;;;;;;;0.57;0.57;;;;;;;12.39;100.00;100236.38;5011435;28;20618;-78
2023/05/11 03:33:53;;;;;;;0.00;0.00;;;;;;;12.40;100.00;100236.03;5028423;28;20247;-79
2023/05/11 03:36:20;;;;;;;0.00;0.00;;;;;;;12.43;100.00;100238.09;5027785;28;20180;-78
2023/05/11 03:38:47;;;;;;;0.00;0.00;;;;;;;12.47;100.00;100239.06;5012740;28;20211;-79
2023/05/11 03:41:16;;;;;;;0.00;0.00;;;;;;;12.49;100.00;100234.06;5028666;28;20216;-80
2023/05/11 03:43:46;;;;;;;0.00;0.00;;;;;;;12.54;100.00;100229.53;5013903;28;20184;-79
2023/05/11 03:46:16;;;;;;;0.00;0.00;;;;;;;12.56;100.00;100224.50;5028730;28;20188;-79
2023/05/11 03:48:42;;;;;;;0.00;0.00;;;;;;;12.53;100.00;100226.00;5013587;28;20169;-78
2023/05/11 03:51:08;;;;;;;0.00;0.00;;;;;;;12.61;100.00;100216.13;5013297;28;20253;-78
2023/05/11 03:53:34;;;;;;;0.10;0.10;;;;;;;12.61;100.00;100219.69;5012827;28;20215;-78
2023/05/11 03:56:00;;;;;;;0.00;0.00;;;;;;;12.61;100.00;100232.56;5012487;28;20192;-79
2023/05/11 03:58:26;;;;;;;0.00;0.00;;;;;;;12.68;100.00;100227.38;5011436;28;20212;-80
2023/05/11 04:00:51;;;;;;;0.00;0.00;;;;;;;12.65;100.00;100223.34;5011107;28;20829;-79
2023/05/11 04:03:17;;;;;;;0.00;0.00;;;;;;;12.50;100.00;100221.97;5012639;28;20180;-77
2023/05/11 04:05:42;;;;;;;0.00;0.00;;;;;;;12.39;100.00;100214.44;5012268;28;20177;-78
2023/05/11 04:08:09;;;;;;;0.00;0.00;;;;;;;12.44;100.00;100223.31;5011846;28;20186;-79
2023/05/11 04:10:34;;;;;;;0.00;0.00;;;;;;;12.37;100.00;100220.25;5012834;28;20188;-78
2023/05/11 04:13:00;;;;;;;0.00;0.00;;;;;;;12.47;100.00;100228.13;5011367;28;20279;-78
2023/05/11 04:15:25;;;;;;;0.00;0.00;;;;;;;12.57;100.00;100218.69;5011096;28;20646;-78
2023/05/11 04:17:50;;;;;;;0.00;0.00;;;;;;;12.51;100.00;100220.84;5011381;28;20204;-78
2023/05/11 04:20:16;;;;;;;0.00;0.00;;;;;;;12.31;100.00;100223.53;5011316;28;20206;-77
2023/05/11 04:22:41;;;;;;;1.27;0.77;;;;;;;12.21;100.00;100217.25;5009865;28;20210;-77
2023/05/11 04:25:07;;;;;;;0.00;0.00;;;;;;;12.29;100.00;100215.59;5009535;28;20673;-78
2023/05/11 04:27:33;;;;;;;1.30;1.30;;;;;;;12.31;100.00;100216.09;5011235;28;20663;-78
2023/05/11 04:29:59;;;;;;;0.00;0.00;;;;;;;12.27;100.00;100214.31;5011053;28;20248;-78
2023/05/11 04:32:24;;;;;;;0.50;0.50;;;;;;;12.26;100.00;100219.00;5010366;28;20231;-79
2023/05/11 04:34:50;;;;;;;0.00;0.00;;;;;;;12.28;100.00;100214.00;4994181;28;20231;-80
2023/05/11 04:37:15;;;;;;;0.20;0.20;;;;;;;12.26;100.00;100207.25;5010899;28;20193;-79
2023/05/11 04:39:40;;;;;;;0.00;0.00;;;;;;;12.36;100.00;100215.09;4999968;28;20259;-79
2023/05/11 04:42:06;;;;;;;0.00;0.00;;;;;;;12.25;100.00;100216.59;4997614;28;20243;-78
2023/05/11 04:44:31;;;;;;;0.00;0.00;;;;;;;12.26;100.00;100220.94;5009779;28;20184;-79
2023/05/11 04:46:56;;;;;;;1.40;1.40;;;;;;;12.21;100.00;100213.72;5005621;28;20181;-79
2023/05/11 04:49:22;;;;;;;0.60;0.60;;;;;;;12.08;100.00;100210.06;4999619;28;20265;-81
2023/05/11 04:51:47;;;;;;;0.20;0.20;;;;;;;12.05;100.00;100215.38;5010870;28;20241;-78
2023/05/11 04:54:12;;;;;;;0.00;0.00;;;;;;;12.16;100.00;100220.19;5011008;28;20182;-80
2023/05/11 04:56:39;;;;;;;0.00;0.00;;;;;;;12.18;100.00;100219.84;5010624;28;20196;-81
2023/05/11 04:59:05;;;;;;;0.30;0.30;;;;;;;12.10;100.00;100212.47;5004912;28;20201;-80
2023/05/11 05:01:31;;;;;;;0.00;0.00;;;;;;;12.19;100.00;100215.97;5000972;28;20196;-81
2023/05/11 05:03:56;;;;;;;0.00;0.00;;;;;;;12.17;100.00;100221.00;4998226;28;20188;-80
2023/05/11 05:06:21;;;;;;;0.17;0.17;;;;;;;12.21;100.00;100219.19;5006475;28;20188;-80
2023/05/11 05:08:47;;;;;;;0.13;0.07;;;;;;;12.24;100.00;100218.53;4998025;28;20189;-80
2023/05/11 05:11:12;;;;;;;0.10;0.10;;;;;;;12.12;100.00;100219.22;4991396;28;20212;-80
2023/05/11 05:13:37;;;;;;;0.30;0.30;;;;;;;12.16;100.00;100222.13;5009849;28;20195;-80
2023/05/11 05:16:03;;;;;;;0.20;0.20;;;;;;;12.21;100.00;100224.66;5009509;28;20271;-81
2023/05/11 05:18:28;;;;;;;0.00;0.00;;;;;;;12.21;100.00;100221.94;5013903;28;20227;-80
2023/05/11 05:20:53;;;;;;;0.10;0.10;;;;;;;12.16;100.00;100225.66;5010328;28;20185;-80
2023/05/11 05:23:19;;;;;;;0.10;0.10;;;;;;;12.10;100.00;100224.22;4995302;28;20185;-81
2023/05/11 05:25:44;;;;;;;0.00;0.00;;;;;;;12.04;100.00;100228.28;5017240;28;20219;-82
2023/05/11 05:28:10;;;;;;;0.00;0.00;;;;;;;12.09;100.00;100235.50;5024410;28;20215;-82
2023/05/11 05:30:36;;;;;;;0.10;0.10;;;;;;;12.08;100.00;100226.47;5025804;28;20323;-82
2023/05/11 05:33:01;;;;;;;0.00;0.00;;;;;;;12.11;100.00;100223.09;5005755;28;20285;-82
2023/05/11 05:35:26;;;;;;;0.23;0.10;;;;;;;12.10;100.00;100226.94;5016429;28;20527;-82
2023/05/11 05:37:52;;;;;;;0.20;0.20;;;;;;;12.05;100.00;100231.81;5017689;28;20674;-81
2023/05/11 05:40:17;;;;;;;0.00;0.00;;;;;;;12.10;100.00;100234.38;5018894;28;20272;-81
2023/05/11 05:42:42;;;;;;;0.00;0.00;;;;;;;12.13;100.00;100248.19;5015754;28;20208;-81
2023/05/11 05:45:08;;;;;;;0.00;0.00;;;;;;;12.08;100.00;100231.16;5004301;28;20276;-82
2023/05/11 05:47:34;;;;;;;0.00;0.00;;;;;;;12.18;100.00;100230.81;5016655;28;20188;-81
2023/05/11 05:49:59;;;;;;;0.00;0.00;;;;;;;12.20;100.00;100247.72;5013229;28;20185;-81
2023/05/11 05:52:24;;;;;;;0.07;0.07;;;;;;;12.01;100.00;100239.09;4998094;28;20197;-80
2023/05/11 05:54:50;;;;;;;0.00;0.00;;;;;;;12.11;100.00;100250.47;5008667;28;20180;-81
2023/05/11 05:57:15;;;;;;;0.40;0.37;;;;;;;12.09;100.00;100254.66;5001700;28;20204;-80
2023/05/11 05:59:40;;;;;;;0.10;0.10;;;;;;;12.14;100.00;100247.06;5005812;28;20240;-80
2023/05/11 06:02:07;;;;;;;0.00;0.00;;;;;;;12.24;100.00;100250.59;5013077;28;20200;-81
2023/05/11 06:04:32;;;;;;;0.00;0.00;;;;;;;12.34;100.00;100248.31;5000424;28;20185;-81
2023/05/11 06:06:58;;;;;;;1.03;1.03;;;;;;;12.32;100.00;100253.31;5011812;28;20181;-81
2023/05/11 06:09:24;;;;;;;0.00;0.00;;;;;;;12.30;100.00;100258.31;5006586;28;20195;-81
2023/05/11 06:11:49;;;;;;;0.00;0.00;;;;;;;12.21;100.00;100258.34;5004251;28;20679;-80
2023/05/11 06:14:14;;;;;;;0.00;0.00;;;;;;;12.30;100.00;100265.75;4997041;28;20199;-81
2023/05/11 06:16:40;;;;;;;0.00;0.00;;;;;;;12.47;100.00;100258.25;5013104;28;20207;-81
2023/05/11 06:19:07;;;;;;;0.00;0.00;;;;;;;12.50;100.00;100260.34;5009611;28;20213;-80
2023/05/11 06:21:32;;;;;;;0.00;0.00;;;;;;;12.19;100.00;100259.81;4995558;28;20244;-79
2023/05/11 06:23:57;;;;;;;0.00;0.00;;;;;;;12.17;100.00;100264.81;5002042;28;20182;-80
2023/05/11 06:26:24;;;;;;;0.00;0.00;;;;;;;12.31;100.00;100259.13;5001360;28;20598;-79
2023/05/11 06:28:50;;;;;;;0.00;0.00;;;;;;;12.28;100.00;100263.31;4997621;28;20618;-80
2023/05/11 06:31:15;;;;;;;0.00;0.00;;;;;;;12.24;100.00;100259.63;4998563;28;20209;-81
2023/05/11 06:33:40;;;;;;;0.00;0.00;;;;;;;12.19;100.00;100254.31;5013000;28;20875;-80
2023/05/11 06:36:06;;;;;;;0.00;0.00;;;;;;;12.23;100.00;100259.94;5008329;28;20620;-81
2023/05/11 06:38:32;;;;;;;0.00;0.00;;;;;;;12.23;100.00;100260.75;5002383;28;20207;-80
2023/05/11 06:40:57;;;;;;;0.10;0.10;;;;;;;12.23;100.00;100263.50;4998898;28;20176;-79
2023/05/11 06:43:22;;;;;;;0.00;0.00;;;;;;;12.31;100.00;100253.66;5014613;28;20303;-80
2023/05/11 06:45:49;;;;;;;0.00;0.00;;;;;;;12.35;100.00;100258.13;5009777;28;20284;-80
2023/05/11 06:48:14;;;;;;;0.00;0.00;;;;;;;12.24;100.00;100245.94;5025350;28;20184;-80
2023/05/11 06:50:39;;;;;;;0.00;0.00;;;;;;;12.33;100.00;100256.88;5024739;28;20200;-81
2023/05/11 06:53:05;;;;;;;0.00;0.00;;;;;;;12.37;100.00;100266.03;5013934;28;20204;-80
2023/05/11 06:55:31;;;;;;;0.20;0.20;;;;;;;12.36;100.00;100258.94;5013267;28;20181;-80
2023/05/11 06:57:56;;;;;;;0.00;0.00;;;;;;;12.29;100.00;100267.66;5000570;28;20214;-81
2023/05/11 07:00:21;;;;;;;0.00;0.00;;;;;;;12.41;100.00;100261.50;5003917;28;20188;-81
2023/05/11 07:02:47;;;;;;;0.00;0.00;;;;;;;12.46;100.00;100264.88;5009681;28;20208;-82
2023/05/11 07:05:12;;;;;;;0.73;0.73;;;;;;;12.44;100.00;100267.16;4996525;28;20177;-83
2023/05/11 07:07:38;;;;;;;0.73;0.73;;;;;;;12.45;100.00;100268.75;4992685;28;20184;-81
2023/05/11 07:10:07;;;;;;;0.00;0.00;;;;;;;12.52;100.00;100268.22;5009596;28;20723;-80
2023/05/11 07:12:32;;;;;;;0.00;0.00;;;;;;;12.62;100.00;100272.53;4994243;28;20197;-79
2023/05/11 07:14:57;;;;;;;0.00;0.00;;;;;;;12.58;100.00;100266.91;5006614;28;20181;-86
2023/05/11 07:17:23;;;;;;;0.47;0.47;;;;;;;12.52;100.00;100262.75;5002700;28;20268;-82
2023/05/11 07:19:51;;;;;;;0.00;0.00;;;;;;;12.61;100.00;100263.53;5005655;28;20205;-79
2023/05/11 07:22:16;;;;;;;0.00;0.00;;;;;;;12.66;100.00;100271.56;5015783;28;20207;-80
2023/05/11 07:24:41;;;;;;;0.00;0.00;;;;;;;12.61;100.00;100279.16;5031529;28;20184;-81
2023/05/11 07:27:07;;;;;;;0.00;0.00;;;;;;;12.69;100.00;100275.56;5015917;28;20215;-81
2023/05/11 07:29:32;;;;;;;0.00;0.00;;;;;;;12.85;100.00;100275.81;5014330;28;20180;-80
2023/05/11 07:31:57;;;;;;;0.00;0.00;;;;;;;12.93;100.00;100274.97;5011806;28;20580;-80
2023/05/11 07:34:23;;;;;;;0.00;0.00;;;;;;;12.94;100.00;100276.56;5011808;28;20643;-79
2023/05/11 07:36:49;;;;;;;0.00;0.00;;;;;;;13.02;100.00;100281.22;5011797;28;20183;-78
2023/05/11 07:39:15;;;;;;;0.00;0.00;;;;;;;13.19;100.00;100280.34;5011735;28;20231;-78
2023/05/11 07:41:41;;;;;;;0.00;0.00;;;;;;;13.17;100.00;100283.38;5007579;28;20204;-77
2023/05/11 07:44:06;;;;;;;0.00;0.00;;;;;;;13.08;100.00;100283.44;4998287;28;20180;-78
2023/05/11 07:46:32;;;;;;;0.00;0.00;;;;;;;13.26;100.00;100283.34;5001414;28;20181;-79
2023/05/11 07:48:57;;;;;;;0.00;0.00;;;;;;;13.35;100.00;100286.84;4990926;28;20571;-78
2023/05/11 07:51:22;;;;;;;0.00;0.00;;;;;;;13.08;100.00;100286.16;5007508;28;20219;-80
2023/05/11 07:53:48;;;;;;;0.00;0.00;;;;;;;13.29;100.00;100296.38;5010601;28;20184;-78
2023/05/11 07:56:13;;;;;;;0.00;0.00;;;;;;;13.34;100.00;100285.25;5003923;28;20331;-79
2023/05/11 07:58:38;;;;;;;0.00;0.00;;;;;;;13.30;100.00;100290.56;4998828;28;20207;-78
2023/05/11 08:01:04;;;;;;;0.00;0.00;;;;;;;13.34;100.00;100294.28;4992454;28;20188;-78
2023/05/11 08:03:29;;;;;;;0.00;0.00;;;;;;;13.37;100.00;100298.28;4999719;28;20180;-79
2023/05/11 08:05:54;;;;;;;0.93;0.93;;;;;;;13.28;100.00;100292.84;4998409;28;20600;-78
2023/05/11 08:08:20;;;;;;;0.00;0.00;;;;;;;13.20;100.00;100298.41;5008172;28;20263;-79
2023/05/11 08:10:45;;;;;;;0.10;0.10;;;;;;;13.09;100.00;100293.25;5010285;28;20613;-79
2023/05/11 08:13:10;;;;;;;0.00;0.00;;;;;;;13.19;100.00;100294.84;5004075;28;20252;-79
2023/05/11 08:15:35;;;;;;;1.70;1.60;;;;;;;12.98;100.00;100297.50;5000369;28;20191;-80
2023/05/11 08:18:01;;;;;;;0.57;0.57;;;;;;;12.92;100.00;100296.09;5011505;28;20251;-79
2023/05/11 08:20:27;;;;;;;0.00;0.00;;;;;;;13.02;100.00;100294.94;5010165;28;20275;-78
2023/05/11 08:22:52;;;;;;;0.00;0.00;;;;;;;13.01;100.00;100298.78;5011326;28;20231;-78
2023/05/11 08:25:18;;;;;;;0.00;0.00;;;;;;;13.01;100.00;100299.59;5011207;28;20181;-80
2023/05/11 08:27:43;;;;;;;0.00;0.00;;;;;;;13.15;100.00;100296.59;5010609;28;20551;-79
2023/05/11 08:30:09;;;;;;;0.00;0.00;;;;;;;13.11;100.00;100303.91;4997833;28;20247;-80
2023/05/11 08:32:35;;;;;;;0.80;0.80;;;;;;;13.11;100.00;100307.44;4994448;28;20204;-80
2023/05/11 08:35:04;;;;;;;1.23;1.03;;;;;;;13.05;100.00;100297.81;5012227;28;20521;-79
2023/05/11 08:37:29;;;;;;;0.00;0.00;;;;;;;13.09;100.00;100301.50;5012009;28;20187;-78
2023/05/11 08:39:55;;;;;;;0.30;0.30;;;;;;;13.15;100.00;100302.09;5012264;28;20200;-78
2023/05/11 08:42:23;;;;;;;0.67;0.67;;;;;;;12.97;100.00;100295.91;4995650;28;20546;-79
2023/05/11 08:44:49;;;;;;;0.00;0.00;;;;;;;12.94;100.00;100299.31;5010581;28;20238;-79
2023/05/11 08:47:16;;;;;;;0.67;0.67;;;;;;;12.98;100.00;100300.25;4996365;28;20679;-79
2023/05/11 08:49:42;;;;;;;1.13;1.03;;;;;;;12.94;100.00;100304.81;5003002;28;20239;-80
2023/05/11 08:52:08;;;;;;;0.37;0.37;;;;;;;13.06;100.00;100302.16;5025548;28;20193;-80
2023/05/11 08:54:33;;;;;;;0.00;0.00;;;;;;;12.97;100.00;100301.41;5000395;28;20195;-80
2023/05/11 08:57:00;;;;;;;0.53;0.53;;;;;;;13.00;100.00;100306.22;5004505;28;20272;-80
2023/05/11 08:59:27;;;;;;;0.73;0.60;;;;;;;13.04;100.00;100301.69;5018867;28;20208;-80
2023/05/11 09:01:54;;;;;;;0.00;0.00;;;;;;;13.13;100.00;100301.63;5018824;28;20211;-80
2023/05/11 09:04:21;;;;;;;0.00;0.00;;;;;;;13.20;100.00;100295.66;5018976;28;20210;-80
2023/05/11 09:06:48;;;;;;;0.00;0.00;;;;;;;13.29;100.00;100302.69;5018611;28;20263;-82
2023/05/11 09:09:15;;;;;;;0.37;0.37;;;;;;;13.09;100.00;100304.22;5021351;28;20231;-82
2023/05/11 09:11:41;;;;;;;0.00;0.00;;;;;;;13.19;100.00;100305.03;5021697;28;20210;-81
2023/05/11 09:14:06;;;;;;;3.00;2.73;;;;;;;13.08;100.00;100299.88;5036539;28;20188;-81
2023/05/11 09:16:31;;;;;;;0.00;0.00;;;;;;;13.20;100.00;100296.47;5019952;28;20195;-80
2023/05/11 09:19:00;;;;;;;0.10;0.10;;;;;;;13.14;100.00;100297.75;5019339;28;20201;-81
2023/05/11 09:21:25;;;;;;;0.00;0.00;;;;;;;12.99;100.00;100298.31;5016942;28;20304;-80
2023/05/11 09:23:55;;;;;;;1.50;1.40;;;;;;;13.02;100.00;100295.75;5018720;28;20177;-81
2023/05/11 09:26:27;;;;;;;0.40;0.40;;;;;;;13.00;100.00;100299.91;5018684;28;20184;-80
2023/05/11 09:28:56;;;;;;;1.00;1.00;;;;;;;12.96;100.00;100299.00;5033724;28;20663;-80
2023/05/11 09:31:41;;;;;;;0.00;0.00;;;;;;;13.00;100.00;100289.75;5018201;28;20227;-81
2023/05/11 09:34:18;;;;;;;0.47;0.47;;;;;;;13.03;100.00;100293.78;5017549;28;20184;-80
2023/05/11 09:36:45;;;;;;;0.00;0.00;;;;;;;12.96;100.00;100293.50;5017971;28;20236;-80
2023/05/11 09:39:12;;;;;;;10.17;1.03;;;;;;;12.91;100.00;100294.50;5017584;28;20708;-80
2023/05/11 09:41:38;;;;;;;0.30;0.20;;;;;;;13.00;100.00;100289.75;5031962;28;20768;-81
2023/05/11 09:44:11;;;;;;;0.73;0.73;;;;;;;13.06;100.00;100293.13;5017445;28;20181;-80
2023/05/11 09:46:37;;;;;;;0.00;0.00;;;;;;;13.08;100.00;100294.41;5017133;28;20234;-80
2023/05/11 09:49:03;;;;;;;0.90;0.27;;;;;;;13.02;100.00;100284.78;5013355;28;20180;-79
2023/05/11 09:51:39;;;;;;;0.00;0.00;;;;;;;13.17;100.00;100294.38;5017497;28;20206;-79
2023/05/11 09:54:25;;;;;;;0.00;0.00;;;;;;;13.23;100.00;100293.03;5016997;28;20172;-81
2023/05/11 09:56:59;;;;;;;0.73;0.73;;;;;;;13.23;100.00;100292.25;5014271;28;20250;-80
2023/05/11 09:59:40;;;;;;;0.00;0.00;;;;;;;13.37;100.00;100303.78;5012249;28;20208;-79
2023/05/11 10:02:20;;;;;;;0.63;0.63;;;;;;;13.30;100.00;100292.50;5013319;28;20204;-79
2023/05/11 10:04:47;;;;;;;0.20;0.20;;;;;;;13.25;100.00;100296.25;5012345;28;20560;-79
2023/05/11 10:07:30;;;;;;;0.73;0.73;;;;;;;13.33;100.00;100297.34;5028590;28;20188;-78
2023/05/11 10:10:06;;;;;;;5.60;0.80;;;;;;;13.29;100.00;100301.88;5013730;28;20183;-79
2023/05/11 10:12:32;;;;;;;0.13;0.13;;;;;;;13.36;100.00;100293.94;5013461;28;20717;-79
2023/05/11 10:15:02;;;;;;;0.43;0.43;;;;;;;13.27;100.00;100296.72;5013389;28;20177;-79
2023/05/11 10:17:29;;;;;;;0.00;0.00;;;;;;;13.30;100.00;100296.06;5013901;28;20294;-79
2023/05/11 10:19:58;;;;;;;0.63;0.63;;;;;;;13.36;100.00;100291.19;5012498;28;20694;-79
2023/05/11 10:22:28;;;;;;;0.10;0.10;;;;;;;13.39;100.00;100288.56;5012201;28;20226;-80
2023/05/11 10:24:55;;;;;;;0.00;0.00;;;;;;;13.34;100.00;100294.28;5013474;28;20310;-79
2023/05/11 10:27:21;;;;;;;0.67;0.67;;;;;;;13.26;100.00;100295.13;5028416;28;20602;-79
2023/05/11 10:29:47;;;;;;;0.47;0.47;;;;;;;13.32;100.00;100287.50;5013470;28;20181;-80
2023/05/11 10:32:16;;;;;;;1.73;1.63;;;;;;;13.19;100.00;100292.13;5014011;28;20200;-80
2023/05/11 10:34:43;;;;;;;0.10;0.10;;;;;;;13.29;100.00;100288.16;5012849;28;20184;-80
2023/05/11 10:37:08;;;;;;;0.00;0.00;;;;;;;13.30;100.00;100282.34;5017962;28;20203;-80
2023/05/11 10:39:39;;;;;;;1.50;1.40;;;;;;;13.14;100.00;100280.47;5016564;28;20263;-80
2023/05/11 10:42:18;;;;;;;0.00;0.00;;;;;;;13.26;100.00;100286.88;5020040;28;20200;-80
2023/05/11 10:45:04;;;;;;;0.00;0.00;;;;;;;13.38;100.00;100288.91;5017898;28;20199;-80
2023/05/11 10:47:45;;;;;;;0.00;0.00;;;;;;;13.37;100.00;100290.06;5017706;28;20180;-80
2023/05/11 10:50:46;;;;;;;0.00;0.00;;;;;;;13.41;100.00;100290.97;5016720;28;20186;-80
2023/05/11 10:53:28;;;;;;;0.20;0.17;;;;;;;13.31;100.00;100294.16;5031329;28;20535;-80
2023/05/11 10:56:18;;;;;;;0.60;0.60;;;;;;;13.23;100.00;100293.03;5016444;28;20196;-81
2023/05/11 10:59:06;;;;;;;0.00;0.00;;;;;;;13.26;100.00;100286.88;5017519;28;20204;-80
2023/05/11 11:01:41;;;;;;;0.00;0.00;;;;;;;13.38;100.00;100283.44;5006202;28;20209;-80
2023/05/11 11:04:09;;;;;;;0.40;0.40;;;;;;;13.32;100.00;100287.50;5011818;28;20192;-80
2023/05/11 11:06:37;;;;;;;0.00;0.00;;;;;;;13.45;100.00;100283.69;5016474;28;20180;-81
2023/05/11 11:09:14;;;;;;;0.73;0.73;;;;;;;13.49;100.00;100297.56;5016041;28;20218;-79
2023/05/11 11:11:45;;;;;;;0.90;0.90;;;;;;;13.29;100.00;100290.91;5015525;28;20566;-81
2023/05/11 11:14:12;;;;;;;0.40;0.40;;;;;;;13.22;100.00;100290.63;5031787;28;20659;-79
2023/05/11 11:16:39;;;;;;;0.23;0.23;;;;;;;13.11;100.00;100291.00;5014228;28;20651;-80
2023/05/11 11:19:32;;;;;;;0.00;0.00;;;;;;;13.18;100.00;100296.00;5015799;28;20241;-81